LEGT

Getafe Air Base

Airport
ICAO code
LEGT
Summary
ICAO Region
EUR
ICAO Territory
Location

,

Serving
Madrid
Elevation
2031 ft
Coordinates
40° 17' 39" N , 3° 43' 26" W
Metar
Observation
LEGT 041330Z 02003KT 340V070 7000 -RA BKN007 OVC009 07/06 Q1009
Station
Madrid / Getafe
Date/Time
2022-12-04 13:30:00
Wind direction
20°
Wind speed
03 kts
Lowest cloud amount
broken clouds
Temperature
7°C
Dew point
6°C
Humidity
93%
QNH
1009 hPa
Weather condition
n/a

Runways

Designator Length Width Surface Rops
05R/23L 920 30 GRE No/No
5/23 2480 60 ASP No/No

Airport map

Aerial View

SKYbrary Partners:

Safety knowledge contributed by: